createdAt,value
2022-07-25T00:01:46.925Z,96079.28
2022-07-25T00:04:14.856Z,96080.13
2022-07-25T00:06:42.929Z,96074.28
2022-07-25T00:09:10.130Z,96068.88
2022-07-25T00:11:36.974Z,96076.88
2022-07-25T00:14:04.931Z,96065.38
2022-07-25T00:16:32.417Z,96065.38
2022-07-25T00:18:59.354Z,96055.44
2022-07-25T00:21:26.188Z,96060.72
2022-07-25T00:23:53.109Z,96064.34
2022-07-25T00:26:20.105Z,96058.91
2022-07-25T00:28:46.794Z,96059.06
2022-07-25T00:31:13.844Z,96056.63
2022-07-25T00:33:41.189Z,96055.84
2022-07-25T00:36:09.003Z,96061.88
2022-07-25T00:38:35.768Z,96055.50
2022-07-25T00:41:04.251Z,96057.91
2022-07-25T00:43:31.157Z,96057.44
2022-07-25T00:45:59.276Z,96053.84
2022-07-25T00:48:28.572Z,96049.66
2022-07-25T00:50:58.901Z,96051.97
2022-07-25T00:53:25.705Z,96048.06
2022-07-25T00:55:52.903Z,96045.47
2022-07-25T00:58:19.678Z,96040.78
2022-07-25T01:00:47.465Z,96043.31
2022-07-25T01:03:14.369Z,96030.63
2022-07-25T01:05:41.493Z,96029.66
2022-07-25T01:08:09.258Z,96029.53
2022-07-25T01:10:36.704Z,96032.19
2022-07-25T01:13:07.335Z,96030.22
2022-07-25T01:15:34.287Z,96030.84
2022-07-25T01:18:01.297Z,96021.81
2022-07-25T01:20:31.536Z,96022.06
2022-07-25T01:22:59.559Z,96026.47
2022-07-25T01:25:27.785Z,96025.91
2022-07-25T01:27:56.149Z,96026.72
2022-07-25T01:30:25.109Z,96026.16
2022-07-25T01:32:55.537Z,96023.81
2022-07-25T01:35:22.607Z,96025.28
2022-07-25T01:37:49.346Z,96019.13
2022-07-25T01:40:16.396Z,96019.13
2022-07-25T01:42:44.007Z,96019.72
2022-07-25T01:45:12.618Z,96015.53
2022-07-25T01:47:39.830Z,96006.47
2022-07-25T01:50:07.634Z,96004.59
2022-07-25T01:52:34.531Z,95998.38
2022-07-25T01:55:01.386Z,95990.47
2022-07-25T01:57:31.008Z,95991.66
2022-07-25T01:59:58.798Z,96003.88
2022-07-25T02:02:25.852Z,95997.25
2022-07-25T02:04:53.416Z,95991.09
2022-07-25T02:07:20.434Z,95991.59
2022-07-25T02:09:56.344Z,95983.28
2022-07-25T02:12:27.282Z,95985.63
2022-07-25T02:14:54.212Z,95982.84
2022-07-25T02:17:21.058Z,95980.91
2022-07-25T02:19:47.767Z,95975.25
2022-07-25T02:22:14.537Z,95976.81
2022-07-25T02:24:41.562Z,95973.06
2022-07-25T02:27:08.348Z,95973.88
2022-07-25T02:29:49.288Z,95968.31
2022-07-25T02:32:21.378Z,95968.81
2022-07-25T02:34:49.162Z,95973.78
2022-07-25T02:37:29.802Z,95963.50
2022-07-25T02:40:00.285Z,95967.28
2022-07-25T02:42:27.238Z,95962.41
2022-07-25T02:44:53.964Z,95968.56
2022-07-25T02:47:20.646Z,95967.19
2022-07-25T02:49:47.391Z,95959.91
2022-07-25T02:52:14.077Z,95962.59
2022-07-25T02:54:40.804Z,95968.13
2022-07-25T02:57:07.599Z,95970.25
2022-07-25T02:59:35.208Z,95962.94
2022-07-25T03:02:02.129Z,95968.41
2022-07-25T03:04:28.940Z,95968.16
2022-07-25T03:06:55.702Z,95965.25
2022-07-25T03:09:22.518Z,95959.59
2022-07-25T03:11:50.544Z,95957.66
2022-07-25T03:14:17.423Z,95952.81
2022-07-25T03:16:44.130Z,95951.91
2022-07-25T03:19:12.867Z,95950.31
2022-07-25T03:21:39.808Z,95947.63
2022-07-25T03:24:07.173Z,95953.53
2022-07-25T03:26:34.058Z,95956.53
2022-07-25T03:29:00.837Z,95947.00
2022-07-25T03:31:28.678Z,95941.13
2022-07-25T03:33:55.503Z,95934.66
2022-07-25T03:36:22.372Z,95934.66
2022-07-25T03:38:49.136Z,95924.34
2022-07-25T03:41:15.784Z,95929.44
2022-07-25T03:43:42.500Z,95922.56
2022-07-25T03:46:09.195Z,95925.22
2022-07-25T03:48:35.976Z,95925.22
2022-07-25T03:51:06.837Z,95920.69
2022-07-25T03:53:54.727Z,95924.66
2022-07-25T03:56:21.517Z,95926.03
2022-07-25T03:58:48.317Z,95924.19
2022-07-25T04:01:15.195Z,95923.63
2022-07-25T04:03:41.947Z,95920.88
2022-07-25T04:06:11.588Z,95917.63
2022-07-25T04:08:38.778Z,95908.88
2022-07-25T04:11:05.593Z,95912.06
2022-07-25T04:13:32.392Z,95921.19
2022-07-25T04:15:59.132Z,95909.97
2022-07-25T04:18:28.698Z,95916.19
2022-07-25T04:20:55.641Z,95914.44
2022-07-25T04:23:22.451Z,95909.00
2022-07-25T04:25:49.210Z,95909.88
2022-07-25T04:28:15.861Z,95906.97
2022-07-25T04:30:45.474Z,95904.97
2022-07-25T04:33:13.386Z,95912.22
2022-07-25T04:35:40.406Z,95914.16
2022-07-25T04:38:11.891Z,95912.13
2022-07-25T04:40:39.031Z,95902.38
2022-07-25T04:43:06.114Z,95910.03
2022-07-25T04:45:33.350Z,95901.25
2022-07-25T04:48:00.595Z,95901.25
2022-07-25T04:50:28.280Z,95899.97
2022-07-25T04:52:54.972Z,95892.75
2022-07-25T04:55:21.921Z,95897.94
2022-07-25T04:57:48.726Z,95893.50
2022-07-25T05:00:18.655Z,95896.78
2022-07-25T05:02:47.123Z,95890.72
2022-07-25T05:05:20.878Z,95884.66
2022-07-25T05:07:48.790Z,95890.78
2022-07-25T05:10:15.536Z,95892.19
2022-07-25T05:12:42.391Z,95879.75
2022-07-25T05:15:09.698Z,95890.00
2022-07-25T05:17:36.836Z,95886.03
2022-07-25T05:20:04.126Z,95881.00
2022-07-25T05:22:31.105Z,95872.25
2022-07-25T05:24:58.329Z,95869.41
2022-07-25T05:27:25.389Z,95876.41
2022-07-25T05:29:52.220Z,95866.38
2022-07-25T05:32:26.359Z,95866.75
2022-07-25T05:34:58.117Z,95869.25
2022-07-25T05:37:25.584Z,95870.63
2022-07-25T05:39:52.389Z,95864.81
2022-07-25T05:42:19.790Z,95865.19
2022-07-25T05:44:46.575Z,95867.66
2022-07-25T05:47:13.683Z,95857.59
2022-07-25T05:49:41.069Z,95854.72
2022-07-25T05:52:12.860Z,95857.75
2022-07-25T05:54:40.530Z,95846.84
2022-07-25T05:57:07.383Z,95852.81
2022-07-25T05:59:34.145Z,95849.69
2022-07-25T06:02:04.007Z,95845.19
2022-07-25T06:04:30.967Z,95854.56
2022-07-25T06:06:58.063Z,95850.88
2022-07-25T06:09:26.482Z,95846.13
2022-07-25T06:12:00.494Z,95844.84
2022-07-25T06:14:29.220Z,95837.19
2022-07-25T06:16:56.665Z,95837.75
2022-07-25T06:19:23.602Z,95835.16
2022-07-25T06:21:50.712Z,95831.72
2022-07-25T06:24:17.687Z,95834.78
2022-07-25T06:26:45.803Z,95836.44
2022-07-25T06:29:13.173Z,95831.19
2022-07-25T06:31:40.151Z,95820.09
2022-07-25T06:34:07.448Z,95819.44
2022-07-25T06:36:34.812Z,95819.59
2022-07-25T06:39:02.660Z,95818.97
2022-07-25T06:41:29.419Z,95824.16
2022-07-25T06:43:56.249Z,95819.22
2022-07-25T06:46:23.197Z,95814.69
2022-07-25T06:48:51.466Z,95813.88
2022-07-25T06:51:18.231Z,95809.78
2022-07-25T06:53:45.077Z,95801.81
2022-07-25T06:56:17.216Z,95798.06
2022-07-25T06:58:44.262Z,95791.63
2022-07-25T07:01:11.249Z,95799.16
2022-07-25T07:03:39.072Z,95789.59
2022-07-25T07:06:06.924Z,95803.44
2022-07-25T07:08:34.482Z,95796.75
2022-07-25T07:11:01.591Z,95806.91
2022-07-25T07:13:29.975Z,95804.97
2022-07-25T07:15:58.134Z,95799.28
2022-07-25T07:18:25.477Z,95804.84
2022-07-25T07:20:52.414Z,95797.56
2022-07-25T07:23:19.633Z,95806.13
2022-07-25T07:25:47.298Z,95804.25
2022-07-25T07:28:14.258Z,95802.84
2022-07-25T07:33:27.843Z,95801.19
2022-07-25T07:35:57.057Z,95801.22
2022-07-25T07:38:25.024Z,95797.16
2022-07-25T07:41:07.901Z,95795.63
2022-07-25T07:43:34.930Z,95801.34
2022-07-25T07:46:02.001Z,95791.28
2022-07-25T07:48:32.721Z,95795.63
2022-07-25T07:51:01.745Z,95801.00
2022-07-25T07:53:47.931Z,95785.25
2022-07-25T07:56:15.956Z,95776.75
2022-07-25T07:58:43.641Z,95779.56
2022-07-25T08:01:10.874Z,95778.75
2022-07-25T08:03:37.933Z,95777.78
2022-07-25T08:06:04.975Z,95783.22
2022-07-25T08:08:32.358Z,95779.97
2022-07-25T08:11:00.378Z,95789.25
2022-07-25T08:13:30.485Z,95777.19
2022-07-25T08:16:00.034Z,95781.56
2022-07-25T08:18:32.721Z,95775.25
2022-07-25T08:21:03.046Z,95770.31
2022-07-25T08:23:32.011Z,95766.25
2022-07-25T08:26:00.732Z,95765.41
2022-07-25T08:28:27.439Z,95765.50
2022-07-25T08:30:55.218Z,95766.47
2022-07-25T08:33:22.338Z,95767.16
2022-07-25T08:35:56.960Z,95759.38
2022-07-25T08:38:25.972Z,95759.41
2022-07-25T08:40:58.127Z,95766.03
2022-07-25T08:43:43.425Z,95760.44
2022-07-25T08:46:14.239Z,95762.19
2022-07-25T08:48:41.001Z,95759.47
2022-07-25T08:51:08.620Z,95759.00
2022-07-25T08:53:37.065Z,95756.53
2022-07-25T10:51:59.510Z,95620.22
2022-07-25T10:54:26.407Z,95620.09
2022-07-25T10:56:57.958Z,95610.31
2022-07-25T10:59:29.136Z,95607.44
2022-07-25T11:01:56.093Z,95609.16
2022-07-25T11:04:23.067Z,95601.44
2022-07-25T11:06:49.915Z,95603.44
2022-07-25T11:09:26.962Z,95597.31
2022-07-25T11:11:57.342Z,95582.91
2022-07-25T11:14:25.785Z,95588.13
2022-07-25T11:16:55.112Z,95582.66
2022-07-25T11:19:29.498Z,95580.38
2022-07-25T11:21:58.796Z,95585.13
2022-07-25T11:24:43.044Z,95582.53
2022-07-25T11:27:12.968Z,95580.66
2022-07-25T11:29:41.169Z,95570.63
2022-07-25T11:32:12.001Z,95571.88
2022-07-25T11:34:43.017Z,95557.25
2022-07-25T11:37:11.977Z,95545.59
2022-07-25T11:39:41.613Z,95545.16
2022-07-25T11:42:11.868Z,95541.56
2022-07-25T11:44:47.564Z,95539.34
2022-07-25T11:47:30.940Z,95527.44
2022-07-25T11:50:01.425Z,95532.75
2022-07-25T11:52:34.773Z,95538.84
2022-07-25T11:55:10.025Z,95529.81
2022-07-25T11:57:46.643Z,95522.91
2022-07-25T12:00:22.244Z,95531.59
2022-07-25T12:02:50.100Z,95523.69
2022-07-25T12:05:21.681Z,95521.22
2022-07-25T12:07:53.313Z,95520.75
2022-07-25T12:10:36.982Z,95515.31
2022-07-25T12:13:06.328Z,95515.88
2022-07-25T12:15:39.070Z,95516.31
2022-07-25T12:18:07.534Z,95511.03
2022-07-25T12:20:43.556Z,95510.53
2022-07-25T12:23:12.540Z,95514.13
2022-07-25T12:25:42.835Z,95506.66
2022-07-25T12:28:11.010Z,95507.09
2022-07-25T12:30:39.543Z,95503.94
2022-07-25T12:33:06.721Z,95492.00
2022-07-25T12:35:33.983Z,95493.91
2022-07-25T12:38:00.678Z,95489.06
2022-07-25T12:40:27.542Z,95490.69
2022-07-25T12:42:54.999Z,95489.19
2022-07-25T12:45:23.233Z,95486.63
2022-07-25T12:47:50.022Z,95492.06
2022-07-25T12:50:18.579Z,95467.34
2022-07-25T12:52:45.832Z,95468.31
2022-07-25T12:55:19.657Z,95477.50
2022-07-25T12:57:46.901Z,95470.25
2022-07-25T13:00:16.618Z,95464.09
2022-07-25T13:02:43.555Z,95463.31
2022-07-25T13:05:10.556Z,95465.63
2022-07-25T13:07:37.990Z,95460.63
2022-07-25T13:10:06.446Z,95453.34
2022-07-25T13:12:33.305Z,95458.13
2022-07-25T13:15:00.284Z,95448.53
2022-07-25T13:17:28.072Z,95446.81
2022-07-25T13:19:56.500Z,95433.88
2022-07-25T13:22:24.262Z,95430.13
2022-07-25T13:24:51.521Z,95437.91
2022-07-25T13:27:20.134Z,95432.16
2022-07-25T13:29:47.266Z,95421.56
2022-07-25T13:32:14.045Z,95424.72
2022-07-25T13:34:40.859Z,95426.84
2022-07-25T13:37:07.552Z,95424.06
2022-07-25T13:39:35.875Z,95426.84
2022-07-25T13:42:03.189Z,95421.09
2022-07-25T13:44:30.130Z,95411.34
2022-07-25T13:46:58.717Z,95406.56
2022-07-25T13:49:25.961Z,95402.28
2022-07-25T13:51:52.816Z,95409.06
2022-07-25T13:54:19.613Z,95401.59
2022-07-25T13:56:47.603Z,95404.75
2022-07-25T13:59:20.487Z,95389.56
2022-07-25T14:01:48.467Z,95384.38
2022-07-25T14:04:15.237Z,95391.84
2022-07-25T14:06:46.588Z,95383.34
2022-07-25T14:09:13.355Z,95393.50
2022-07-25T14:11:40.136Z,95382.53
2022-07-25T14:14:06.773Z,95380.38
2022-07-25T14:16:34.388Z,95375.63
2022-07-25T14:19:02.283Z,95382.53
2022-07-25T14:21:29.951Z,95371.44
2022-07-25T14:23:56.598Z,95382.97
2022-07-25T14:26:23.376Z,95368.47
2022-07-25T14:28:50.061Z,95359.75
2022-07-25T14:31:17.535Z,95358.72
2022-07-25T14:33:44.262Z,95358.50
2022-07-25T14:36:11.109Z,95359.06
2022-07-25T14:38:37.879Z,95353.47
2022-07-25T14:41:10.501Z,95349.06
2022-07-25T14:43:40.234Z,95350.84
2022-07-25T14:46:08.143Z,95343.03
2022-07-25T14:48:39.079Z,95344.25
2022-07-25T14:51:14.337Z,95343.66
2022-07-25T14:53:42.702Z,95346.94
2022-07-25T14:56:09.519Z,95333.88
2022-07-25T14:58:36.309Z,95343.19
2022-07-25T15:01:03.295Z,95344.44
2022-07-25T15:03:30.161Z,95340.78
2022-07-25T15:06:09.759Z,95326.75
2022-07-25T15:08:58.418Z,95333.69
2022-07-25T15:11:32.577Z,95335.69
2022-07-25T15:13:59.520Z,95332.75
2022-07-25T15:16:26.361Z,95330.34
2022-07-25T15:19:15.004Z,95330.06
2022-07-25T15:21:40.348Z,95334.97
2022-07-25T15:24:07.531Z,95340.59
2022-07-25T15:26:34.344Z,95337.66
2022-07-25T15:29:01.266Z,95330.03
2022-07-25T15:31:28.323Z,95330.59
2022-07-25T15:33:55.080Z,95332.31
2022-07-25T15:36:24.562Z,95331.75
2022-07-25T15:38:55.671Z,95323.78
2022-07-25T15:41:22.562Z,95321.53
2022-07-25T15:43:51.304Z,95321.69
2022-07-25T15:46:18.141Z,95313.28
2022-07-25T15:48:45.650Z,95317.56
2022-07-25T15:51:22.236Z,95311.47
2022-07-25T15:53:49.265Z,95304.97
2022-07-25T15:56:16.432Z,95297.34
2022-07-25T15:58:44.365Z,95288.22
2022-07-25T16:01:11.369Z,95287.13
2022-07-25T16:03:38.412Z,95289.09
2022-07-25T16:06:05.355Z,95297.41
2022-07-25T16:08:32.422Z,95287.22
2022-07-25T16:11:00.180Z,95285.34
2022-07-25T16:13:27.284Z,95287.00
2022-07-25T16:15:54.136Z,95287.94
2022-07-25T16:18:20.951Z,95291.53
2022-07-25T16:20:47.886Z,95287.41
2022-07-25T16:23:14.621Z,95287.94
2022-07-25T16:25:43.760Z,95287.75
2022-07-25T16:28:10.564Z,95294.13
2022-07-25T16:30:37.380Z,95280.75
2022-07-25T16:33:04.376Z,95285.38
2022-07-25T16:35:32.077Z,95280.78
2022-07-25T16:37:58.801Z,95277.47
2022-07-25T16:40:30.224Z,95272.34
2022-07-25T16:42:59.371Z,95276.16
2022-07-25T16:45:26.600Z,95279.66
2022-07-25T16:47:53.498Z,95280.94
2022-07-25T16:50:20.766Z,95274.25
2022-07-25T16:52:47.543Z,95271.53
2022-07-25T16:55:14.450Z,95264.22
2022-07-25T16:57:41.148Z,95270.28
2022-07-25T17:00:09.554Z,95271.84
2022-07-25T17:02:36.245Z,95265.78
2022-07-25T17:05:03.915Z,95267.69
2022-07-25T17:07:31.619Z,95260.34
2022-07-25T17:09:59.523Z,95261.03
2022-07-25T17:12:26.478Z,95262.66
2022-07-25T17:14:53.905Z,95266.00
2022-07-25T17:17:20.741Z,95263.28
2022-07-25T17:19:47.590Z,95267.56
2022-07-25T17:22:14.361Z,95273.44
2022-07-25T17:24:41.801Z,95277.75
2022-07-25T17:27:09.425Z,95285.22
2022-07-25T17:29:37.452Z,95268.63
2022-07-25T17:32:06.131Z,95276.56
2022-07-25T17:34:33.151Z,95279.09
2022-07-25T17:37:03.026Z,95282.59
2022-07-25T17:39:33.543Z,95276.22
2022-07-25T17:42:01.135Z,95285.09
2022-07-25T17:44:28.670Z,95290.59
2022-07-25T17:46:55.795Z,95315.16
2022-07-25T17:49:22.715Z,95342.31
2022-07-25T17:51:50.342Z,95337.84
2022-07-25T17:54:17.078Z,95357.44
2022-07-25T17:56:45.476Z,95360.78
2022-07-25T17:59:12.390Z,95349.75
2022-07-25T18:01:40.039Z,95354.94
2022-07-25T18:04:07.341Z,95365.34
2022-07-25T18:06:34.637Z,95371.53
2022-07-25T18:09:01.489Z,95352.59
2022-07-25T18:11:28.266Z,95350.78
2022-07-25T18:13:55.024Z,95341.47
2022-07-25T18:16:22.794Z,95341.97
2022-07-25T18:18:49.635Z,95353.34
2022-07-25T18:21:16.514Z,95366.34
2022-07-25T18:23:43.303Z,95374.22
2022-07-25T18:26:10.212Z,95363.97
2022-07-25T18:28:37.058Z,95377.53
2022-07-25T18:31:04.623Z,95377.41
2022-07-25T18:33:32.302Z,95380.25
2022-07-25T18:36:00.905Z,95380.84
2022-07-25T18:38:31.458Z,95382.16
2022-07-25T18:41:19.297Z,95385.63
2022-07-25T18:43:45.741Z,95388.50
2022-07-25T18:46:15.020Z,95390.91
2022-07-25T18:48:43.445Z,95400.75
2022-07-25T18:51:11.044Z,95392.81
2022-07-25T18:53:38.127Z,95389.22
2022-07-25T18:56:06.246Z,95385.19
2022-07-25T18:58:33.278Z,95385.97
2022-07-25T19:01:02.835Z,95391.88
2022-07-25T19:03:31.666Z,95390.38
2022-07-25T19:06:03.087Z,95383.41
2022-07-25T19:08:30.777Z,95377.13
2022-07-25T19:10:57.498Z,95388.88
2022-07-25T19:13:47.655Z,95402.44
2022-07-25T19:16:11.982Z,95414.16
2022-07-25T19:18:39.642Z,95410.09
2022-07-25T19:21:06.917Z,95412.69
2022-07-25T19:23:33.774Z,95418.59
2022-07-25T19:26:02.273Z,95422.88
2022-07-25T19:28:29.195Z,95423.16
2022-07-25T19:30:57.167Z,95421.59
2022-07-25T19:33:24.465Z,95424.03
2022-07-25T19:35:52.482Z,95427.00
2022-07-25T19:38:20.236Z,95431.22
2022-07-25T19:40:47.919Z,95429.97
2022-07-25T19:43:17.043Z,95429.06
2022-07-25T19:45:43.907Z,95422.16
2022-07-25T19:48:11.705Z,95397.47
2022-07-25T19:50:38.484Z,95400.44
2022-07-25T19:53:05.204Z,95405.09
2022-07-25T19:55:31.929Z,95394.91
2022-07-25T19:57:58.588Z,95395.97
2022-07-25T20:00:25.317Z,95402.81
2022-07-25T20:06:10.908Z,95429.25
2022-07-25T20:08:39.536Z,95431.25
2022-07-25T20:11:07.773Z,95424.50
2022-07-25T20:13:35.882Z,95417.47
2022-07-25T20:16:04.038Z,95421.50
2022-07-25T20:18:30.896Z,95406.97
2022-07-25T20:20:58.266Z,95412.84
2022-07-25T20:23:25.197Z,95430.56
2022-07-25T20:25:52.123Z,95433.03
2022-07-25T20:28:18.924Z,95435.47
2022-07-25T20:30:45.929Z,95437.66
2022-07-25T20:33:12.863Z,95436.25
2022-07-25T20:35:40.037Z,95433.03
2022-07-25T20:38:09.800Z,95433.81
2022-07-25T20:40:39.535Z,95455.81
2022-07-25T20:43:09.231Z,95460.09
2022-07-25T20:45:36.815Z,95459.69
2022-07-25T20:48:04.882Z,95460.34
2022-07-25T20:50:32.052Z,95473.78
2022-07-25T20:52:58.887Z,95477.13
2022-07-25T20:55:28.480Z,95480.97
2022-07-25T20:57:55.338Z,95484.75
2022-07-25T21:00:22.952Z,95512.28
2022-07-25T21:02:49.775Z,95523.00
2022-07-25T21:05:16.479Z,95511.50
2022-07-25T21:07:43.672Z,95487.16
2022-07-25T21:10:11.094Z,95476.16
2022-07-25T21:12:38.710Z,95468.88
2022-07-25T21:15:06.933Z,95476.56
2022-07-25T21:17:34.411Z,95462.56
2022-07-25T21:20:01.215Z,95459.88
2022-07-25T21:22:27.972Z,95464.00
2022-07-25T21:24:54.766Z,95470.81
2022-07-25T21:27:21.602Z,95485.41
2022-07-25T21:29:48.351Z,95490.50
2022-07-25T21:32:15.993Z,95489.91
2022-07-25T21:34:47.386Z,95495.78
2022-07-25T21:37:14.322Z,95496.84
2022-07-25T21:39:41.185Z,95501.97
2022-07-25T21:42:10.038Z,95489.19
2022-07-25T21:44:39.857Z,95486.47
2022-07-25T21:47:07.074Z,95492.34
2022-07-25T21:49:52.654Z,95496.91
2022-07-25T21:52:19.718Z,95504.69
2022-07-25T21:54:57.152Z,95507.13
2022-07-25T21:57:23.813Z,95504.72
2022-07-25T21:59:50.564Z,95494.56
2022-07-25T22:02:18.292Z,95495.91
2022-07-25T22:04:45.147Z,95496.47
2022-07-25T22:07:11.893Z,95511.72
2022-07-25T22:09:38.731Z,95503.44
2022-07-25T22:12:05.822Z,95510.13
2022-07-25T22:14:32.717Z,95505.84
2022-07-25T22:16:59.533Z,95505.81
2022-07-25T22:19:26.280Z,95507.41
2022-07-25T22:21:53.123Z,95515.41
2022-07-25T22:24:19.840Z,95519.69
2022-07-25T22:26:46.736Z,95525.84
2022-07-25T22:29:13.427Z,95525.56
2022-07-25T22:31:40.473Z,95551.53
2022-07-25T22:34:07.447Z,95566.69
2022-07-25T22:36:34.182Z,95565.56
2022-07-25T22:39:00.881Z,95569.31
2022-07-25T22:41:27.853Z,95571.13
2022-07-25T22:43:58.885Z,95575.41
2022-07-25T22:46:30.171Z,95582.25
2022-07-25T22:48:58.296Z,95572.97
2022-07-25T22:51:25.539Z,95583.09
2022-07-25T22:53:52.724Z,95591.06
2022-07-25T22:56:20.124Z,95609.97
2022-07-25T22:58:49.227Z,95609.44
2022-07-25T23:01:19.948Z,95612.97
2022-07-25T23:03:49.956Z,95609.25
2022-07-25T23:06:18.641Z,95617.75
2022-07-25T23:08:45.542Z,95615.56
2022-07-25T23:11:12.488Z,95628.38
2022-07-25T23:13:39.193Z,95632.63
2022-07-25T23:16:06.359Z,95638.25
2022-07-25T23:18:37.633Z,95641.25
2022-07-25T23:21:04.487Z,95646.84
2022-07-25T23:23:31.372Z,95660.47
2022-07-25T23:25:58.095Z,95674.28
2022-07-25T23:28:24.757Z,95659.28
2022-07-25T23:30:51.536Z,95667.53
2022-07-25T23:33:18.285Z,95666.84
2022-07-25T23:35:52.541Z,95668.03
2022-07-25T23:38:19.344Z,95666.06
2022-07-25T23:40:46.040Z,95664.78
2022-07-25T23:43:13.678Z,95662.94
2022-07-25T23:45:43.737Z,95673.25
2022-07-25T23:48:13.195Z,95689.00
2022-07-25T23:50:39.869Z,95681.03
2022-07-25T23:53:06.728Z,95694.97
2022-07-25T23:55:35.203Z,95711.06
2022-07-25T23:58:01.997Z,95717.44
